createdAt,value
2023-03-31T00:00:36.918Z,2.27
2023-03-31T00:03:10.386Z,1.93
2023-03-31T00:05:38.450Z,1.60
2023-03-31T00:08:07.256Z,1.57
2023-03-31T00:10:35.758Z,1.50
2023-03-31T00:13:04.889Z,1.50
2023-03-31T00:15:32.729Z,1.67
2023-03-31T00:18:00.847Z,1.80
2023-03-31T00:20:29.052Z,1.30
2023-03-31T00:22:57.624Z,1.63
2023-03-31T00:25:27.854Z,1.57
2023-03-31T00:27:55.780Z,1.60
2023-03-31T00:30:25.251Z,1.90
2023-03-31T00:32:53.329Z,1.73
2023-03-31T00:35:23.672Z,1.53
2023-03-31T00:37:51.410Z,1.77
2023-03-31T00:40:19.190Z,1.47
2023-03-31T00:42:48.195Z,1.83
2023-03-31T00:45:29.533Z,1.80
2023-03-31T00:48:04.304Z,2.53
2023-03-31T00:50:36.554Z,1.53
2023-03-31T00:53:09.659Z,1.43
2023-03-31T00:55:43.145Z,1.70
2023-03-31T00:58:15.227Z,1.87
2023-03-31T01:00:44.514Z,1.47
2023-03-31T01:03:12.387Z,1.53
2023-03-31T01:05:45.927Z,1.73
2023-03-31T01:08:15.903Z,1.40
2023-03-31T01:10:49.412Z,1.83
2023-03-31T01:13:19.801Z,1.47
2023-03-31T01:15:49.915Z,1.57
2023-03-31T01:18:21.216Z,2.07
2023-03-31T01:21:19.024Z,1.70
2023-03-31T01:24:16.683Z,1.60
2023-03-31T01:26:57.481Z,1.63
2023-03-31T01:29:44.069Z,1.63
2023-03-31T01:32:43.510Z,2.50
2023-03-31T01:35:33.805Z,2.47
2023-03-31T01:38:25.640Z,3.40
2023-03-31T01:41:09.381Z,3.00
2023-03-31T01:43:45.931Z,3.00
2023-03-31T01:46:22.430Z,3.23
2023-03-31T01:48:59.223Z,2.57
2023-03-31T01:51:34.761Z,2.20
2023-03-31T01:54:10.898Z,2.33
2023-03-31T01:56:45.238Z,2.13
2023-03-31T01:59:17.698Z,2.33
2023-03-31T02:01:52.371Z,2.57
2023-03-31T02:04:24.430Z,2.30
2023-03-31T02:06:57.212Z,1.97
2023-03-31T02:09:28.648Z,1.93
2023-03-31T02:12:00.473Z,1.73
2023-03-31T02:14:32.321Z,2.33
2023-03-31T02:17:03.910Z,1.93
2023-03-31T02:19:35.365Z,1.80
2023-03-31T02:22:05.777Z,1.60
2023-03-31T02:24:35.360Z,2.00
2023-03-31T02:27:10.226Z,1.73
2023-03-31T02:29:38.248Z,1.77
2023-03-31T02:32:12.576Z,2.20
2023-03-31T02:34:40.711Z,1.50
2023-03-31T02:37:08.733Z,2.30
2023-03-31T02:39:39.642Z,1.73
2023-03-31T02:42:09.299Z,2.30
2023-03-31T02:44:38.317Z,2.10
2023-03-31T02:47:09.556Z,1.87
2023-03-31T02:49:39.959Z,2.20
2023-03-31T02:52:37.815Z,2.10
2023-03-31T02:55:17.648Z,2.00
2023-03-31T02:58:09.896Z,2.07
2023-03-31T03:00:49.969Z,2.40
2023-03-31T03:03:30.885Z,3.50
2023-03-31T03:06:07.204Z,4.37
2023-03-31T03:09:09.027Z,4.17
2023-03-31T03:11:48.050Z,3.37
2023-03-31T03:14:28.636Z,3.27
2023-03-31T03:17:02.227Z,3.30
2023-03-31T03:19:30.238Z,3.43
2023-03-31T03:21:59.042Z,3.80
2023-03-31T03:24:29.478Z,3.67
2023-03-31T03:26:57.959Z,4.00
2023-03-31T03:29:27.185Z,3.63
2023-03-31T03:31:55.397Z,3.23
2023-03-31T03:34:23.175Z,3.23
2023-03-31T03:36:51.888Z,4.50
2023-03-31T03:39:19.684Z,5.40
2023-03-31T03:41:47.856Z,5.37
2023-03-31T03:44:15.844Z,5.23
2023-03-31T03:46:45.002Z,4.97
2023-03-31T03:49:12.929Z,4.17
2023-03-31T03:54:23.136Z,4.97
2023-03-31T03:56:51.135Z,4.63
2023-03-31T03:59:19.139Z,6.83
2023-03-31T04:01:48.578Z,5.40
2023-03-31T04:04:16.928Z,4.13
2023-03-31T04:06:44.759Z,2.63
2023-03-31T04:09:12.547Z,2.90
2023-03-31T04:11:40.326Z,3.43
2023-03-31T04:14:08.093Z,4.20
2023-03-31T04:16:35.852Z,3.40
2023-03-31T04:19:05.271Z,3.77
2023-03-31T04:21:34.934Z,4.57
2023-03-31T04:24:04.708Z,4.63
2023-03-31T04:26:45.111Z,4.27
2023-03-31T04:29:14.209Z,4.10
2023-03-31T04:31:43.611Z,3.00
2023-03-31T04:34:14.889Z,3.37
2023-03-31T04:36:47.163Z,3.07
2023-03-31T04:39:16.386Z,4.47
2023-03-31T04:41:44.234Z,4.20
2023-03-31T04:44:11.916Z,5.47
2023-03-31T04:46:39.642Z,4.43
2023-03-31T04:49:07.407Z,5.23
2023-03-31T04:51:36.406Z,4.87
2023-03-31T04:54:04.238Z,5.97
2023-03-31T04:56:31.956Z,4.90
2023-03-31T04:58:59.720Z,4.33
2023-03-31T05:01:27.435Z,3.97
2023-03-31T05:03:55.186Z,3.70
2023-03-31T05:06:23.178Z,4.27
2023-03-31T05:08:52.279Z,3.88
2023-03-31T05:11:20.029Z,4.10
2023-03-31T05:13:47.817Z,3.80
2023-03-31T05:16:16.324Z,3.10
2023-03-31T05:18:44.148Z,3.57
2023-03-31T05:21:12.977Z,2.80
2023-03-31T05:23:40.836Z,2.30
2023-03-31T05:26:10.858Z,2.50
2023-03-31T05:28:39.181Z,2.47
2023-03-31T05:31:07.876Z,2.77
2023-03-31T05:33:40.149Z,1.83
2023-03-31T05:36:10.674Z,1.73
2023-03-31T05:38:39.070Z,2.17
2023-03-31T05:41:07.578Z,2.60
2023-03-31T05:43:36.886Z,1.80
2023-03-31T05:46:05.330Z,1.77
2023-03-31T05:48:33.401Z,1.80
2023-03-31T05:51:02.151Z,1.90
2023-03-31T05:53:30.795Z,1.67
2023-03-31T05:55:59.549Z,1.80
2023-03-31T05:58:27.717Z,1.60
2023-03-31T06:01:06.078Z,1.70
2023-03-31T06:03:34.592Z,1.93
2023-03-31T06:06:02.961Z,1.90
2023-03-31T06:08:31.122Z,1.50
2023-03-31T06:10:59.026Z,1.57
2023-03-31T06:13:26.857Z,1.50
2023-03-31T06:15:56.091Z,1.73
2023-03-31T06:18:25.755Z,1.27
2023-03-31T06:20:53.549Z,1.25
2023-03-31T06:23:21.507Z,1.63
2023-03-31T06:25:51.722Z,1.33
2023-03-31T06:28:19.997Z,1.20
2023-03-31T06:30:48.090Z,0.95
2023-03-31T06:33:16.499Z,1.05
2023-03-31T06:35:45.662Z,0.90
2023-03-31T06:38:13.492Z,0.90
2023-03-31T06:40:41.265Z,0.70
2023-03-31T06:43:09.192Z,1.17
2023-03-31T06:45:38.295Z,0.70
2023-03-31T06:48:06.954Z,1.10
2023-03-31T06:50:34.894Z,0.90
2023-03-31T06:53:04.136Z,1.03
2023-03-31T06:55:33.789Z,1.20
2023-03-31T06:58:01.679Z,0.70
2023-03-31T07:00:29.748Z,0.77
2023-03-31T07:02:57.762Z,0.80
2023-03-31T07:05:27.458Z,0.80
2023-03-31T07:07:55.318Z,1.00
2023-03-31T07:10:25.301Z,0.90
2023-03-31T07:12:53.105Z,0.70
2023-03-31T07:15:20.981Z,0.80
2023-03-31T07:17:51.187Z,0.80
2023-03-31T07:20:20.558Z,0.70
2023-03-31T07:22:49.993Z,0.63
2023-03-31T07:25:18.731Z,0.70
2023-03-31T07:27:47.882Z,0.63
2023-03-31T07:30:17.700Z,0.80
2023-03-31T07:32:47.903Z,1.35
2023-03-31T07:35:16.113Z,0.85
2023-03-31T07:37:45.704Z,0.77
2023-03-31T07:40:16.527Z,0.90
2023-03-31T07:42:49.178Z,0.60
2023-03-31T07:45:19.040Z,0.60
2023-03-31T07:47:47.355Z,0.60
2023-03-31T07:50:16.483Z,0.70
2023-03-31T07:52:46.875Z,0.70
2023-03-31T07:55:15.712Z,0.70
2023-03-31T07:57:46.102Z,0.60
2023-03-31T08:00:15.796Z,0.70
2023-03-31T08:02:45.405Z,0.80
2023-03-31T08:05:14.959Z,0.80
2023-03-31T08:07:44.656Z,0.90
2023-03-31T08:10:14.762Z,0.80
2023-03-31T08:12:42.595Z,0.97
2023-03-31T08:15:11.101Z,0.70
2023-03-31T08:17:39.645Z,1.00
2023-03-31T08:20:10.619Z,0.90
2023-03-31T08:22:39.016Z,1.20
2023-03-31T08:25:09.091Z,1.10
2023-03-31T08:27:39.339Z,0.70
2023-03-31T08:30:08.633Z,0.83
2023-03-31T08:32:36.940Z,0.90
2023-03-31T08:35:05.463Z,1.20
2023-03-31T08:37:34.820Z,1.05
2023-03-31T08:40:04.593Z,1.10
2023-03-31T08:42:38.740Z,1.23
2023-03-31T08:45:12.596Z,1.23
2023-03-31T08:47:41.634Z,1.30
2023-03-31T08:50:14.674Z,1.58
2023-03-31T08:52:48.177Z,1.60
2023-03-31T08:55:25.637Z,2.37
2023-03-31T08:57:59.972Z,2.23
2023-03-31T09:00:45.925Z,1.83
2023-03-31T09:03:20.385Z,1.80
2023-03-31T09:06:00.226Z,1.85
2023-03-31T09:08:38.227Z,1.63
2023-03-31T09:11:14.260Z,1.67
2023-03-31T09:14:23.573Z,2.00
2023-03-31T09:17:01.535Z,1.87
2023-03-31T09:19:37.269Z,1.70
2023-03-31T09:22:10.425Z,1.92
2023-03-31T09:24:48.591Z,1.98
2023-03-31T09:27:17.635Z,2.07
2023-03-31T09:29:50.081Z,1.83
2023-03-31T09:32:19.419Z,1.60
2023-03-31T09:34:49.011Z,1.80
2023-03-31T09:37:17.080Z,2.17
2023-03-31T09:39:46.417Z,2.23
2023-03-31T09:42:15.543Z,2.13
2023-03-31T09:44:47.239Z,2.33
2023-03-31T09:47:20.863Z,2.27
2023-03-31T09:49:54.085Z,1.90
2023-03-31T09:52:29.886Z,2.33
2023-03-31T09:55:01.349Z,1.80
2023-03-31T09:57:33.786Z,1.75
2023-03-31T10:00:14.651Z,1.98
2023-03-31T10:02:45.795Z,1.93
2023-03-31T10:05:27.010Z,1.93
2023-03-31T10:08:12.466Z,1.95
2023-03-31T10:10:46.894Z,1.90
2023-03-31T10:13:18.538Z,2.37
2023-03-31T10:15:46.654Z,2.60
2023-03-31T10:18:15.460Z,1.92
2023-03-31T10:20:46.447Z,2.23
2023-03-31T10:23:19.640Z,2.43
2023-03-31T10:25:50.814Z,2.47
2023-03-31T10:28:21.187Z,2.27
2023-03-31T10:30:51.162Z,2.27
2023-03-31T10:33:23.222Z,1.90
2023-03-31T10:35:56.841Z,2.00
2023-03-31T10:38:28.716Z,2.63
2023-03-31T10:41:00.187Z,1.83
2023-03-31T10:43:30.323Z,2.75
2023-03-31T10:46:01.212Z,2.88
2023-03-31T10:48:30.731Z,1.92
2023-03-31T10:51:01.737Z,2.10
2023-03-31T10:53:29.455Z,1.90
2023-03-31T10:56:18.533Z,1.90
2023-03-31T10:59:16.380Z,2.45
2023-03-31T11:02:03.207Z,2.50
2023-03-31T11:04:45.651Z,2.00
2023-03-31T11:07:27.501Z,2.27
2023-03-31T11:10:11.554Z,2.05
2023-03-31T11:12:49.773Z,2.37
2023-03-31T11:15:26.054Z,1.70
2023-03-31T11:18:17.533Z,1.90
2023-03-31T11:20:59.269Z,0.90
2023-03-31T11:23:38.731Z,0.90
2023-03-31T11:26:11.866Z,0.97
2023-03-31T11:29:02.624Z,1.20
2023-03-31T11:31:40.572Z,0.83
2023-03-31T11:34:26.734Z,1.10
2023-03-31T11:37:31.920Z,1.03
2023-03-31T11:40:14.639Z,1.30
2023-03-31T11:42:53.845Z,1.30
2023-03-31T11:45:29.491Z,1.40
2023-03-31T11:48:06.235Z,1.10
2023-03-31T11:50:39.920Z,1.80
2023-03-31T11:53:16.921Z,1.40
2023-03-31T11:55:47.604Z,1.40
2023-03-31T11:58:18.695Z,1.30
2023-03-31T12:00:52.785Z,1.50
2023-03-31T12:03:24.614Z,2.27
2023-03-31T12:05:56.664Z,2.57
2023-03-31T12:08:30.512Z,2.77
2023-03-31T12:11:03.660Z,1.77
2023-03-31T12:13:41.312Z,2.27
2023-03-31T12:16:16.155Z,1.93
2023-03-31T12:18:58.255Z,2.63
2023-03-31T12:21:28.038Z,1.93
2023-03-31T12:23:58.540Z,2.20
2023-03-31T12:26:38.651Z,2.50
2023-03-31T12:29:17.040Z,2.60
2023-03-31T12:31:47.435Z,2.40
2023-03-31T12:34:19.955Z,2.37
2023-03-31T12:37:00.727Z,2.77
2023-03-31T12:39:44.610Z,3.40
2023-03-31T12:42:40.603Z,2.57
2023-03-31T12:45:18.927Z,2.47
2023-03-31T12:48:03.961Z,1.80
2023-03-31T12:50:43.555Z,2.00
2023-03-31T12:53:21.892Z,2.27
2023-03-31T12:55:51.964Z,2.20
2023-03-31T12:58:41.974Z,2.07
2023-03-31T13:01:17.194Z,1.67
2023-03-31T13:03:50.395Z,2.23
2023-03-31T13:06:52.568Z,1.90
2023-03-31T13:09:43.611Z,2.10
2023-03-31T13:12:17.240Z,2.00
2023-03-31T13:14:50.520Z,2.23
2023-03-31T13:17:27.713Z,2.25
2023-03-31T13:19:58.554Z,1.97
2023-03-31T13:22:35.189Z,2.17
2023-03-31T13:25:42.279Z,1.53
2023-03-31T13:28:15.526Z,1.30
2023-03-31T13:30:52.109Z,1.60
2023-03-31T13:33:24.225Z,1.23
2023-03-31T13:35:58.182Z,1.43
2023-03-31T13:38:38.781Z,1.40
2023-03-31T13:41:16.334Z,1.30
2023-03-31T13:44:11.480Z,1.80
2023-03-31T13:47:05.145Z,1.50
2023-03-31T13:49:54.338Z,1.70
2023-03-31T13:52:40.490Z,1.60
2023-03-31T13:55:41.809Z,1.57
2023-03-31T13:58:38.665Z,1.60
2023-03-31T14:01:40.798Z,1.63
2023-03-31T14:04:25.978Z,1.50
2023-03-31T14:06:57.454Z,1.43
2023-03-31T14:09:31.622Z,1.90
2023-03-31T14:11:59.867Z,1.47
2023-03-31T14:14:29.675Z,1.20
2023-03-31T14:17:00.304Z,1.37
2023-03-31T14:19:49.340Z,1.80
2023-03-31T14:22:29.302Z,1.25
2023-03-31T14:25:12.515Z,1.60
2023-03-31T14:27:54.910Z,1.33
2023-03-31T14:30:34.565Z,1.17
2023-03-31T14:33:17.136Z,0.83
2023-03-31T14:35:53.112Z,1.13
2023-03-31T14:38:22.377Z,0.90
2023-03-31T14:40:56.305Z,0.87
2023-03-31T14:43:26.797Z,1.00
2023-03-31T14:45:59.434Z,1.07
2023-03-31T14:48:28.813Z,1.17
2023-03-31T14:50:59.702Z,1.07
2023-03-31T14:53:28.284Z,1.13
2023-03-31T14:56:03.469Z,1.33
2023-03-31T14:58:35.347Z,1.17
2023-03-31T15:01:06.817Z,1.27
2023-03-31T15:03:37.591Z,0.90
2023-03-31T15:06:06.539Z,1.07
2023-03-31T15:08:36.832Z,1.10
2023-03-31T15:11:12.870Z,1.10
2023-03-31T15:14:04.463Z,1.38
2023-03-31T15:16:38.795Z,1.20
2023-03-31T15:19:14.998Z,1.20
2023-03-31T15:21:43.502Z,1.27
2023-03-31T15:24:13.145Z,1.42
2023-03-31T15:26:46.790Z,1.70
2023-03-31T15:29:19.301Z,1.00
2023-03-31T15:31:48.228Z,1.70
2023-03-31T15:34:21.040Z,1.50
2023-03-31T15:36:49.277Z,1.67
2023-03-31T15:39:17.019Z,1.87
2023-03-31T15:41:49.092Z,1.93
2023-03-31T15:44:31.186Z,1.70
2023-03-31T15:47:06.931Z,2.00
2023-03-31T15:49:35.597Z,1.93
2023-03-31T15:52:03.418Z,2.10
2023-03-31T15:54:35.874Z,1.70
2023-03-31T15:57:06.940Z,1.90
2023-03-31T15:59:54.569Z,2.27
2023-03-31T16:02:26.723Z,1.70
2023-03-31T16:04:58.036Z,1.90
2023-03-31T16:07:28.538Z,1.87
2023-03-31T16:10:02.700Z,1.60
2023-03-31T16:12:36.389Z,2.07
2023-03-31T16:15:08.546Z,1.67
2023-03-31T16:17:39.734Z,1.67
2023-03-31T16:20:19.200Z,1.83
2023-03-31T16:22:50.879Z,1.07
2023-03-31T16:25:22.118Z,1.07
2023-03-31T16:27:55.014Z,1.00
2023-03-31T16:30:36.574Z,1.23
2023-03-31T16:33:07.004Z,1.10
2023-03-31T16:35:36.884Z,0.83
2023-03-31T16:38:04.993Z,0.90
2023-03-31T16:40:37.104Z,0.97
2023-03-31T16:43:11.406Z,0.90
2023-03-31T16:45:39.124Z,1.13
2023-03-31T16:48:15.641Z,1.27
2023-03-31T16:50:44.638Z,1.00
2023-03-31T16:53:13.683Z,0.80
2023-03-31T16:55:41.632Z,0.70
2023-03-31T16:58:11.303Z,1.00
2023-03-31T17:00:41.867Z,1.10
2023-03-31T17:03:11.768Z,1.20
2023-03-31T17:05:41.217Z,1.30
2023-03-31T17:08:10.180Z,1.30
2023-03-31T17:10:39.427Z,1.20
2023-03-31T17:13:08.050Z,1.20
2023-03-31T17:15:37.844Z,1.20
2023-03-31T17:18:07.279Z,1.00
2023-03-31T17:20:35.587Z,1.03
2023-03-31T17:23:04.339Z,1.10
2023-03-31T17:25:32.138Z,1.10
2023-03-31T17:28:01.365Z,1.43
2023-03-31T17:30:29.436Z,1.37
2023-03-31T17:33:01.666Z,1.17
2023-03-31T17:35:29.660Z,1.10
2023-03-31T17:37:57.615Z,1.37
2023-03-31T17:40:26.834Z,0.93
2023-03-31T17:42:55.878Z,1.10
2023-03-31T17:45:23.738Z,1.07
2023-03-31T17:47:51.692Z,1.17
2023-03-31T17:50:21.108Z,1.07
2023-03-31T17:52:49.502Z,1.07
2023-03-31T17:55:17.852Z,1.30
2023-03-31T17:57:46.240Z,1.27
2023-03-31T18:00:16.078Z,1.50
2023-03-31T18:02:44.552Z,1.20
2023-03-31T18:05:12.502Z,1.00
2023-03-31T18:07:42.338Z,1.03
2023-03-31T18:10:12.100Z,1.27
2023-03-31T18:12:39.940Z,1.10
2023-03-31T18:15:10.842Z,1.33
2023-03-31T18:17:38.958Z,0.90
2023-03-31T18:20:07.987Z,1.43
2023-03-31T18:22:38.286Z,1.63
2023-03-31T18:25:09.277Z,1.00
2023-03-31T18:27:37.366Z,1.10
2023-03-31T18:30:08.800Z,1.43
2023-03-31T18:32:37.280Z,1.40
2023-03-31T18:35:10.105Z,1.10
2023-03-31T18:37:37.808Z,1.40
2023-03-31T18:40:10.309Z,1.50
2023-03-31T18:42:38.031Z,1.20
2023-03-31T18:45:07.051Z,1.17
2023-03-31T18:47:34.772Z,1.10
2023-03-31T18:50:06.430Z,1.10
2023-03-31T18:52:35.447Z,1.40
2023-03-31T18:55:03.868Z,1.20
2023-03-31T18:57:33.066Z,0.97
2023-03-31T19:00:01.700Z,1.23
2023-03-31T19:02:29.755Z,1.47
2023-03-31T19:04:57.769Z,1.00
2023-03-31T19:07:25.545Z,1.10
2023-03-31T19:09:53.238Z,1.03
2023-03-31T19:12:22.311Z,0.90
2023-03-31T19:14:52.470Z,1.50
2023-03-31T19:17:20.896Z,1.70
2023-03-31T19:19:48.752Z,1.20
2023-03-31T19:22:16.925Z,1.37
2023-03-31T19:24:45.137Z,1.10
2023-03-31T19:27:13.524Z,1.20
2023-03-31T19:29:41.313Z,1.00
2023-03-31T19:32:10.527Z,0.80
2023-03-31T19:34:38.529Z,1.00
2023-03-31T19:37:06.610Z,1.03
2023-03-31T19:39:34.460Z,0.90
2023-03-31T19:42:03.101Z,0.80
2023-03-31T19:44:30.842Z,1.10
2023-03-31T19:46:58.827Z,1.27
2023-03-31T19:49:27.974Z,1.27
2023-03-31T19:51:55.951Z,1.03
2023-03-31T19:54:24.648Z,1.00
2023-03-31T19:56:52.592Z,1.00
2023-03-31T19:59:20.596Z,0.87
2023-03-31T20:01:48.470Z,1.30
2023-03-31T20:04:17.955Z,1.13
2023-03-31T20:06:48.366Z,1.03
2023-03-31T20:09:17.295Z,1.10
2023-03-31T20:11:45.567Z,1.23
2023-03-31T20:14:15.121Z,1.20
2023-03-31T20:16:44.536Z,0.90
2023-03-31T20:19:14.399Z,0.93
2023-03-31T20:21:42.771Z,1.00
2023-03-31T20:24:16.744Z,1.10
2023-03-31T20:26:45.380Z,1.13
2023-03-31T20:29:13.572Z,0.80
2023-03-31T20:31:41.881Z,1.27
2023-03-31T20:34:16.666Z,1.00
2023-03-31T20:36:45.781Z,1.20
2023-03-31T20:39:15.968Z,1.17
2023-03-31T20:41:44.139Z,0.83
2023-03-31T20:44:15.120Z,1.20
2023-03-31T20:46:44.870Z,1.10
2023-03-31T20:49:13.070Z,1.00
2023-03-31T20:51:42.626Z,1.00
2023-03-31T20:54:10.843Z,1.10
2023-03-31T20:56:41.549Z,1.10
2023-03-31T20:59:12.601Z,1.10
2023-03-31T21:01:42.221Z,1.10
2023-03-31T21:04:11.590Z,1.27
2023-03-31T21:06:41.765Z,1.17
2023-03-31T21:09:11.533Z,1.60
2023-03-31T21:11:41.421Z,1.27
2023-03-31T21:14:12.209Z,1.40
2023-03-31T21:16:40.139Z,1.57
2023-03-31T21:19:07.956Z,1.20
2023-03-31T21:21:36.326Z,1.93
2023-03-31T21:24:04.401Z,1.60
2023-03-31T21:26:32.303Z,1.43
2023-03-31T21:29:01.377Z,1.13
2023-03-31T21:31:29.149Z,1.37
2023-03-31T21:33:57.837Z,1.33
2023-03-31T21:36:26.770Z,1.03
2023-03-31T21:38:55.725Z,1.27
2023-03-31T21:41:25.452Z,1.10
2023-03-31T21:43:54.423Z,1.40
2023-03-31T21:46:26.458Z,1.13
2023-03-31T21:48:54.724Z,1.10
2023-03-31T21:51:23.704Z,1.00
2023-03-31T21:53:53.047Z,0.90
2023-03-31T21:56:20.972Z,0.90
2023-03-31T21:58:48.753Z,0.83
2023-03-31T22:01:16.707Z,1.10
2023-03-31T22:03:46.369Z,0.80
2023-03-31T22:06:14.104Z,0.90
2023-03-31T22:08:41.979Z,0.93
2023-03-31T22:11:12.935Z,0.90
2023-03-31T22:13:41.308Z,0.80
2023-03-31T22:16:17.160Z,0.80
2023-03-31T22:18:47.127Z,0.80
2023-03-31T22:21:22.652Z,0.80
2023-03-31T22:24:01.577Z,0.83
2023-03-31T22:26:31.039Z,0.60
2023-03-31T22:28:59.067Z,0.70
2023-03-31T22:31:27.210Z,0.80
2023-03-31T22:33:56.360Z,0.67
2023-03-31T22:36:27.189Z,0.70
2023-03-31T22:38:55.035Z,1.00
2023-03-31T22:41:23.473Z,0.70
2023-03-31T22:43:51.571Z,0.70
2023-03-31T22:46:19.456Z,0.80
2023-03-31T22:48:51.772Z,0.70
2023-03-31T22:51:21.008Z,0.70
2023-03-31T22:53:51.926Z,0.77
2023-03-31T22:56:20.131Z,0.80
2023-03-31T22:58:48.057Z,0.90
2023-03-31T23:01:17.810Z,0.80
2023-03-31T23:03:47.217Z,0.70
2023-03-31T23:06:21.898Z,0.77
2023-03-31T23:08:51.071Z,1.20
2023-03-31T23:11:19.542Z,0.70
2023-03-31T23:13:48.494Z,0.93
2023-03-31T23:16:18.936Z,0.73
2023-03-31T23:18:47.751Z,0.70
2023-03-31T23:21:17.035Z,0.83
2023-03-31T23:23:44.853Z,0.90
2023-03-31T23:26:15.802Z,0.50
2023-03-31T23:28:45.411Z,1.00
2023-03-31T23:31:13.363Z,0.80
2023-03-31T23:33:41.396Z,0.50
2023-03-31T23:36:10.461Z,0.70
2023-03-31T23:38:38.219Z,0.83
2023-03-31T23:41:06.030Z,0.60
2023-03-31T23:43:35.377Z,0.53
2023-03-31T23:46:04.851Z,0.40
2023-03-31T23:48:32.632Z,0.50
2023-03-31T23:51:00.547Z,0.50
2023-03-31T23:53:28.654Z,0.60
2023-03-31T23:55:57.832Z,0.50
2023-03-31T23:58:26.640Z,0.50
